createdAt,value
2022-08-28T00:00:00.102Z,99.9
2022-08-28T00:00:59.808Z,99.9
2022-08-28T00:02:13.036Z,99.9
2022-08-28T00:03:00.798Z,99.9
2022-08-28T00:04:00.859Z,99.9
2022-08-28T00:05:00.748Z,99.9
2022-08-28T00:06:00.517Z,99.9
2022-08-28T00:07:13.934Z,99.9
2022-08-28T00:08:01.240Z,99.9
2022-08-28T00:09:00.656Z,99.9
2022-08-28T00:10:00.319Z,99.9
2022-08-28T00:11:59.824Z,99.9
2022-08-28T00:13:01.563Z,99.9
2022-08-28T00:14:00.749Z,99.9
2022-08-28T00:15:00.470Z,99.9
2022-08-28T00:16:00.267Z,99.9
2022-08-28T00:16:59.970Z,99.9
2022-08-28T00:17:59.759Z,99.9
2022-08-28T00:19:01.386Z,99.9
2022-08-28T00:20:01.204Z,99.9
2022-08-28T00:21:02.361Z,99.9
2022-08-28T00:22:01.113Z,99.9
2022-08-28T00:23:00.805Z,99.9
2022-08-28T00:24:00.504Z,99.9
2022-08-28T00:25:00.562Z,99.9
2022-08-28T00:26:06.538Z,99.9
2022-08-28T00:27:01.025Z,99.9
2022-08-28T00:28:00.742Z,99.9
2022-08-28T00:29:00.751Z,99.9
2022-08-28T00:30:01.237Z,99.9
2022-08-28T00:31:09.255Z,99.9
2022-08-28T00:32:00.897Z,99.9
2022-08-28T00:33:00.742Z,99.9
2022-08-28T00:34:00.375Z,99.9
2022-08-28T00:35:00.075Z,99.9
2022-08-28T00:36:12.354Z,99.9
2022-08-28T00:37:01.481Z,99.9
2022-08-28T00:38:01.218Z,99.9
2022-08-28T00:39:00.921Z,99.9
2022-08-28T00:40:00.681Z,99.9
2022-08-28T00:41:16.243Z,99.9
2022-08-28T00:42:01.340Z,99.9
2022-08-28T00:43:00.943Z,99.9
2022-08-28T00:44:00.642Z,99.9
2022-08-28T00:45:00.353Z,99.9
2022-08-28T00:46:00.210Z,99.9
2022-08-28T00:46:59.942Z,99.9
2022-08-28T00:47:59.646Z,99.9
2022-08-28T00:49:01.603Z,99.9
2022-08-28T00:50:00.686Z,99.9
2022-08-28T00:51:00.900Z,99.9
2022-08-28T00:52:00.715Z,99.9
2022-08-28T00:53:00.519Z,99.9
2022-08-28T00:54:02.183Z,99.9
2022-08-28T00:55:01.339Z,99.9
2022-08-28T00:56:01.149Z,99.9
2022-08-28T00:57:00.572Z,99.9
2022-08-28T00:58:00.418Z,99.9
2022-08-28T00:59:00.427Z,99.9
2022-08-28T01:00:00.115Z,99.9
2022-08-28T01:00:59.812Z,99.9
2022-08-28T01:02:00.753Z,99.9
2022-08-28T01:03:00.533Z,99.9
2022-08-28T01:04:00.265Z,99.9
2022-08-28T01:04:59.962Z,99.9
2022-08-28T01:05:59.616Z,99.9
2022-08-28T01:07:02.042Z,99.9
2022-08-28T01:08:01.323Z,99.9
2022-08-28T01:09:00.689Z,99.9
2022-08-28T01:10:00.758Z,99.9
2022-08-28T01:11:00.394Z,99.9
2022-08-28T01:12:00.138Z,99.9
2022-08-28T01:13:01.435Z,99.9
2022-08-28T01:14:01.782Z,99.9
2022-08-28T01:15:01.215Z,99.9
2022-08-28T01:16:01.369Z,99.9
2022-08-28T01:17:01.288Z,99.9
2022-08-28T01:18:05.953Z,99.9
2022-08-28T01:19:01.426Z,99.9
2022-08-28T01:20:00.876Z,99.9
2022-08-28T01:21:00.820Z,99.9
2022-08-28T01:22:00.696Z,99.9
2022-08-28T01:23:00.717Z,99.9
2022-08-28T01:24:00.602Z,99.9
2022-08-28T01:25:00.394Z,99.9
2022-08-28T01:26:00.105Z,99.9
2022-08-28T01:27:01.350Z,99.9
2022-08-28T01:28:01.038Z,99.9
2022-08-28T01:29:00.737Z,99.9
2022-08-28T01:30:00.779Z,99.9
2022-08-28T01:31:01.753Z,99.9
2022-08-28T01:32:01.484Z,99.9
2022-08-28T01:33:01.165Z,99.9
2022-08-28T01:34:00.861Z,99.9
2022-08-28T01:35:00.591Z,99.9
2022-08-28T01:36:00.321Z,99.9
2022-08-28T01:36:59.989Z,99.9
2022-08-28T01:38:01.427Z,99.9
2022-08-28T01:39:01.103Z,99.9
2022-08-28T01:40:00.833Z,99.9
2022-08-28T01:41:00.541Z,99.9
2022-08-28T01:42:00.228Z,99.9
2022-08-28T01:42:59.904Z,99.9
2022-08-28T01:43:59.538Z,99.9
2022-08-28T01:45:01.193Z,99.9
2022-08-28T01:46:00.857Z,99.9
2022-08-28T01:47:00.758Z,99.9
2022-08-28T01:48:00.769Z,99.9
2022-08-28T01:49:00.782Z,99.9
2022-08-28T01:50:02.126Z,99.9
2022-08-28T01:51:01.293Z,99.9
2022-08-28T01:52:01.282Z,99.9
2022-08-28T01:53:01.004Z,99.9
2022-08-28T01:54:01.119Z,99.9
2022-08-28T01:55:01.117Z,99.9
2022-08-28T01:56:01.523Z,99.9
2022-08-28T01:57:02.904Z,99.9
2022-08-28T01:58:01.280Z,99.9
2022-08-28T01:59:00.582Z,99.9
2022-08-28T02:00:00.345Z,99.9
2022-08-28T02:01:00.015Z,99.9
2022-08-28T02:02:05.559Z,99.9
2022-08-28T02:03:00.923Z,99.9
2022-08-28T02:04:01.793Z,99.9
2022-08-28T02:05:00.662Z,99.9
2022-08-28T02:06:00.366Z,99.9
2022-08-28T02:07:07.734Z,99.9
2022-08-28T02:08:01.525Z,99.9
2022-08-28T02:09:01.296Z,99.9
2022-08-28T02:10:01.021Z,99.9
2022-08-28T02:11:00.699Z,99.9
2022-08-28T02:12:10.037Z,99.9
2022-08-28T02:13:01.508Z,99.9
2022-08-28T02:14:01.374Z,99.9
2022-08-28T02:15:01.921Z,99.9
2022-08-28T02:16:02.378Z,99.9
2022-08-28T02:17:13.529Z,99.9
2022-08-28T02:18:01.420Z,99.9
2022-08-28T02:19:01.052Z,99.9
2022-08-28T02:20:01.022Z,99.9
2022-08-28T02:21:01.013Z,99.9
2022-08-28T02:22:00.757Z,99.9
2022-08-28T02:23:00.484Z,99.9
2022-08-28T02:24:00.175Z,99.9
2022-08-28T02:24:59.881Z,99.9
2022-08-28T02:25:59.573Z,99.9
2022-08-28T02:27:01.327Z,99.9
2022-08-28T02:28:01.149Z,99.9
2022-08-28T02:29:00.925Z,99.9
2022-08-28T02:30:00.566Z,99.9
2022-08-28T02:31:00.296Z,99.9
2022-08-28T02:32:00.047Z,99.9
2022-08-28T02:32:59.940Z,99.9
2022-08-28T02:34:00.289Z,99.9
2022-08-28T02:34:59.955Z,99.9
2022-08-28T02:36:00.585Z,99.9
2022-08-28T02:37:00.226Z,99.9
2022-08-28T02:38:00.590Z,99.9
2022-08-28T02:39:00.380Z,99.9
2022-08-28T02:40:00.214Z,99.9
2022-08-28T02:40:59.961Z,99.9
2022-08-28T02:42:01.713Z,99.9
2022-08-28T02:43:01.018Z,99.9
2022-08-28T02:44:00.678Z,99.9
2022-08-28T02:45:00.322Z,99.9
2022-08-28T02:46:00.314Z,99.9
2022-08-28T02:47:00.202Z,99.9
2022-08-28T02:47:59.920Z,99.9
2022-08-28T02:48:59.620Z,99.9
2022-08-28T02:50:01.284Z,99.9
2022-08-28T02:51:01.072Z,99.9
2022-08-28T02:52:00.773Z,99.9
2022-08-28T02:53:00.478Z,99.9
2022-08-28T02:54:00.169Z,99.9
2022-08-28T02:54:59.892Z,99.9
2022-08-28T02:55:59.570Z,99.9
2022-08-28T02:57:01.312Z,99.9
2022-08-28T02:58:00.953Z,99.9
2022-08-28T02:59:00.607Z,99.9
2022-08-28T03:00:00.313Z,99.9
2022-08-28T03:00:59.978Z,99.9
2022-08-28T03:01:59.709Z,99.9
2022-08-28T03:03:01.530Z,99.9
2022-08-28T03:04:01.287Z,99.9
2022-08-28T03:05:01.162Z,99.9
2022-08-28T03:06:00.833Z,99.9
2022-08-28T03:07:00.465Z,99.9
2022-08-28T03:08:00.176Z,99.9
2022-08-28T03:08:59.903Z,99.9
2022-08-28T03:09:59.571Z,99.9
2022-08-28T03:11:01.301Z,99.9
2022-08-28T03:12:01.439Z,99.9
2022-08-28T03:13:01.027Z,99.9
2022-08-28T03:14:00.831Z,99.9
2022-08-28T03:15:00.662Z,99.9
2022-08-28T03:16:00.665Z,99.9
2022-08-28T03:17:00.458Z,99.9
2022-08-28T03:18:00.261Z,99.9
2022-08-28T03:18:59.924Z,99.9
2022-08-28T03:19:59.713Z,99.9
2022-08-28T03:21:01.399Z,99.9
2022-08-28T03:22:01.080Z,99.9
2022-08-28T03:23:00.749Z,99.9
2022-08-28T03:24:00.808Z,99.9
2022-08-28T03:25:00.671Z,99.9
2022-08-28T03:26:00.411Z,99.9
2022-08-28T03:27:00.097Z,99.9
2022-08-28T03:27:59.804Z,99.9
2022-08-28T03:29:01.837Z,99.9
2022-08-28T03:30:01.148Z,99.9
2022-08-28T03:31:01.302Z,99.9
2022-08-28T03:32:01.203Z,99.9
2022-08-28T03:33:00.975Z,99.9
2022-08-28T03:34:00.991Z,99.9
2022-08-28T03:35:01.001Z,99.9
2022-08-28T03:36:04.577Z,99.9
2022-08-28T03:37:00.875Z,99.9
2022-08-28T03:38:04.379Z,99.9
2022-08-28T03:39:00.583Z,99.9
2022-08-28T03:40:00.597Z,99.9
2022-08-28T03:41:00.392Z,99.9
2022-08-28T03:42:00.371Z,99.9
2022-08-28T03:43:06.833Z,99.9
2022-08-28T03:44:01.468Z,99.9
2022-08-28T03:45:00.812Z,99.9
2022-08-28T03:46:00.586Z,99.9
2022-08-28T03:47:00.328Z,99.9
2022-08-28T03:48:10.145Z,99.9
2022-08-28T03:49:01.049Z,99.9
2022-08-28T03:50:00.956Z,99.9
2022-08-28T03:51:00.884Z,99.9
2022-08-28T03:52:02.335Z,99.9
2022-08-28T03:53:12.341Z,99.9
2022-08-28T03:54:00.917Z,99.9
2022-08-28T03:55:00.588Z,99.9
2022-08-28T03:56:00.344Z,99.9
2022-08-28T03:56:59.983Z,99.9
2022-08-28T03:57:59.673Z,99.9
2022-08-28T03:59:01.429Z,99.9
2022-08-28T04:00:01.079Z,99.9
2022-08-28T04:01:01.256Z,99.9
2022-08-28T04:02:00.948Z,99.9
2022-08-28T04:03:00.644Z,99.9
2022-08-28T04:04:00.350Z,99.9
2022-08-28T04:05:00.041Z,99.9
2022-08-28T04:05:59.710Z,99.9
2022-08-28T04:07:01.487Z,99.9
2022-08-28T04:08:01.364Z,99.9
2022-08-28T04:09:01.093Z,99.9
2022-08-28T04:10:00.678Z,99.9
2022-08-28T04:11:00.389Z,99.9
2022-08-28T04:12:00.071Z,99.9
2022-08-28T04:12:59.887Z,99.9
2022-08-28T04:13:59.577Z,99.9
2022-08-28T04:15:01.315Z,99.9
2022-08-28T04:16:01.124Z,99.9
2022-08-28T04:17:01.660Z,99.9
2022-08-28T04:18:00.651Z,99.9
2022-08-28T04:19:00.542Z,99.9
2022-08-28T04:20:00.165Z,99.9
2022-08-28T04:20:59.943Z,99.9
2022-08-28T04:21:59.613Z,99.9
2022-08-28T04:23:01.364Z,99.9
2022-08-28T04:24:01.192Z,99.9
2022-08-28T04:25:00.900Z,99.9
2022-08-28T04:26:00.750Z,99.9
2022-08-28T04:27:00.487Z,99.9
2022-08-28T04:28:00.107Z,99.9
2022-08-28T04:29:00.267Z,99.9
2022-08-28T04:30:00.177Z,99.9
2022-08-28T04:31:00.018Z,99.9
2022-08-28T04:32:00.084Z,99.9
2022-08-28T04:32:59.799Z,99.9
2022-08-28T04:34:01.448Z,99.9
2022-08-28T04:35:01.125Z,99.9
2022-08-28T04:36:00.845Z,99.9
2022-08-28T04:37:00.575Z,99.9
2022-08-28T04:38:00.250Z,99.9
2022-08-28T04:38:59.948Z,99.9
2022-08-28T04:39:59.710Z,99.9
2022-08-28T04:41:01.506Z,99.9
2022-08-28T04:42:01.944Z,99.9
2022-08-28T04:43:01.471Z,99.9
2022-08-28T04:44:00.618Z,99.9
2022-08-28T04:45:00.315Z,99.9
2022-08-28T04:46:00.841Z,99.9
2022-08-28T04:47:00.612Z,99.9
2022-08-28T04:48:02.975Z,99.9
2022-08-28T04:49:00.850Z,99.9
2022-08-28T04:50:00.636Z,99.9
2022-08-28T04:51:00.437Z,99.9
2022-08-28T04:52:00.168Z,99.9
2022-08-28T04:52:59.976Z,99.9
2022-08-28T04:53:59.750Z,99.9
2022-08-28T04:55:01.494Z,99.9
2022-08-28T04:56:01.200Z,99.9
2022-08-28T04:57:01.048Z,99.9
2022-08-28T04:58:00.835Z,99.9
2022-08-28T04:59:00.710Z,99.9
2022-08-28T05:00:00.989Z,99.9
2022-08-28T05:01:01.083Z,99.9
2022-08-28T05:02:01.063Z,99.9
2022-08-28T05:03:01.051Z,99.9
2022-08-28T05:04:00.841Z,99.9
2022-08-28T05:05:00.676Z,99.9
2022-08-28T05:06:00.480Z,99.9
2022-08-28T05:07:00.158Z,99.9
2022-08-28T05:07:59.938Z,99.9
2022-08-28T05:08:59.678Z,99.9
2022-08-28T05:10:01.601Z,99.9
2022-08-28T05:11:01.467Z,99.9
2022-08-28T05:12:01.300Z,99.9
2022-08-28T05:13:01.144Z,99.9
2022-08-28T05:14:01.032Z,99.9
2022-08-28T05:15:00.795Z,99.9
2022-08-28T05:16:00.639Z,99.9
2022-08-28T05:17:00.363Z,99.9
2022-08-28T05:18:00.284Z,99.9
2022-08-28T05:19:00.028Z,99.9
2022-08-28T05:19:59.922Z,99.9
2022-08-28T05:20:59.720Z,99.9
2022-08-28T05:22:01.415Z,99.9
2022-08-28T05:23:00.910Z,99.9
2022-08-28T05:24:01.782Z,99.9
2022-08-28T05:25:00.667Z,99.9
2022-08-28T05:26:00.307Z,99.9
2022-08-28T05:26:59.968Z,99.9
2022-08-28T05:27:59.678Z,99.9
2022-08-28T05:29:02.734Z,99.9
2022-08-28T05:30:02.202Z,99.9
2022-08-28T05:31:01.520Z,99.9
2022-08-28T05:32:01.293Z,99.9
2022-08-28T05:33:01.210Z,99.9
2022-08-28T05:34:06.869Z,99.9
2022-08-28T05:35:00.935Z,99.9
2022-08-28T05:36:00.637Z,99.9
2022-08-28T05:37:00.373Z,99.9
2022-08-28T05:37:59.989Z,99.9
2022-08-28T05:39:07.080Z,99.9
2022-08-28T05:40:00.803Z,99.9
2022-08-28T05:41:00.560Z,99.9
2022-08-28T05:42:00.298Z,99.9
2022-08-28T05:43:00.385Z,99.9
2022-08-28T05:44:10.676Z,99.9
2022-08-28T05:45:02.113Z,99.9
2022-08-28T05:46:01.202Z,99.9
2022-08-28T05:47:00.659Z,99.9
2022-08-28T05:48:00.419Z,99.9
2022-08-28T05:49:13.748Z,99.9
2022-08-28T05:50:01.396Z,99.9
2022-08-28T05:51:01.135Z,99.9
2022-08-28T05:52:00.688Z,99.9
2022-08-28T05:53:00.454Z,99.9
2022-08-28T05:54:00.138Z,99.9
2022-08-28T05:54:59.836Z,99.9
2022-08-28T05:56:01.578Z,99.9
2022-08-28T05:57:01.278Z,99.9
2022-08-28T05:58:01.795Z,99.9
2022-08-28T05:59:01.504Z,99.9
2022-08-28T06:00:01.309Z,99.9
2022-08-28T06:01:01.103Z,99.9
2022-08-28T06:02:04.157Z,99.9
2022-08-28T06:03:00.731Z,99.9
2022-08-28T06:04:00.495Z,99.9
2022-08-28T06:05:00.592Z,99.9
2022-08-28T06:06:00.324Z,99.9
2022-08-28T06:07:00.014Z,99.9
2022-08-28T06:08:00.669Z,99.9
2022-08-28T06:09:00.947Z,99.9
2022-08-28T06:10:00.667Z,99.9
2022-08-28T06:11:00.359Z,99.9
2022-08-28T06:12:00.475Z,99.9
2022-08-28T06:13:01.510Z,99.9
2022-08-28T06:14:01.390Z,99.9
2022-08-28T06:15:00.684Z,99.9
2022-08-28T06:16:00.447Z,99.9
2022-08-28T06:17:00.150Z,99.9
2022-08-28T06:17:59.906Z,99.9
2022-08-28T06:18:59.627Z,99.9
2022-08-28T06:20:01.321Z,99.9
2022-08-28T06:21:01.163Z,99.9
2022-08-28T06:22:00.812Z,99.9
2022-08-28T06:23:00.564Z,99.9
2022-08-28T06:24:00.246Z,99.9
2022-08-28T06:24:59.923Z,99.9
2022-08-28T06:25:59.583Z,99.9
2022-08-28T06:27:01.311Z,99.9
2022-08-28T06:28:00.996Z,99.9
2022-08-28T06:29:00.670Z,99.9
2022-08-28T06:30:00.376Z,99.9
2022-08-28T06:31:18.531Z,99.9
2022-08-28T06:32:00.750Z,99.9
2022-08-28T06:33:00.561Z,99.9
2022-08-28T06:34:00.459Z,99.9
2022-08-28T06:35:00.199Z,99.9
2022-08-28T06:35:59.906Z,99.9
2022-08-28T06:36:59.619Z,99.9
2022-08-28T06:38:01.282Z,99.9
2022-08-28T06:39:00.940Z,99.9
2022-08-28T06:40:00.784Z,99.9
2022-08-28T06:41:00.554Z,99.9
2022-08-28T06:42:00.247Z,99.9
2022-08-28T06:43:00.994Z,99.9
2022-08-28T06:44:00.794Z,99.9
2022-08-28T06:45:00.475Z,99.9
2022-08-28T06:46:00.218Z,99.9
2022-08-28T06:47:00.610Z,99.9
2022-08-28T06:48:00.298Z,99.9
2022-08-28T06:48:59.936Z,99.9
2022-08-28T06:49:59.903Z,99.9
2022-08-28T06:50:59.596Z,99.9
2022-08-28T06:52:01.343Z,99.9
2022-08-28T06:53:00.989Z,99.9
2022-08-28T06:54:00.852Z,99.9
2022-08-28T06:55:00.781Z,99.9
2022-08-28T06:56:01.012Z,99.9
2022-08-28T06:57:00.658Z,99.9
2022-08-28T06:58:00.313Z,99.9
2022-08-28T06:58:59.948Z,99.9
2022-08-28T06:59:59.656Z,99.9
2022-08-28T07:01:03.088Z,99.9
2022-08-28T07:02:01.198Z,99.9
2022-08-28T07:03:01.042Z,99.9
2022-08-28T07:04:00.735Z,99.9
2022-08-28T07:05:02.920Z,99.9
2022-08-28T07:06:01.120Z,99.9
2022-08-28T07:07:00.787Z,99.9
2022-08-28T07:08:00.452Z,99.9
2022-08-28T07:09:00.351Z,99.9
2022-08-28T07:10:05.729Z,99.9
2022-08-28T07:11:01.181Z,99.9
2022-08-28T07:12:01.195Z,99.9
2022-08-28T07:13:00.878Z,99.9
2022-08-28T07:14:00.576Z,99.9
2022-08-28T07:15:08.549Z,99.9
2022-08-28T07:16:01.302Z,99.9
2022-08-28T07:17:00.996Z,99.9
2022-08-28T07:18:00.683Z,99.9
2022-08-28T07:19:00.398Z,99.9
2022-08-28T07:20:11.740Z,99.9
2022-08-28T07:21:01.119Z,99.9
2022-08-28T07:22:00.827Z,99.9
2022-08-28T07:23:00.510Z,99.9
2022-08-28T07:24:01.052Z,99.9
2022-08-28T07:25:16.302Z,99.9
2022-08-28T07:26:01.837Z,99.9
2022-08-28T07:27:00.946Z,99.9
2022-08-28T07:28:00.655Z,99.9
2022-08-28T07:29:10.450Z,99.9
2022-08-28T07:30:01.286Z,99.9
2022-08-28T07:31:01.181Z,99.9
2022-08-28T07:32:00.985Z,99.9
2022-08-28T07:33:01.034Z,99.9
2022-08-28T07:34:00.688Z,99.9
2022-08-28T07:35:00.332Z,99.9
2022-08-28T07:36:00.419Z,99.9
2022-08-28T07:37:00.797Z,99.9
2022-08-28T07:38:00.471Z,99.9
2022-08-28T07:39:00.128Z,99.9
2022-08-28T07:39:59.844Z,99.9
2022-08-28T07:41:01.670Z,99.9
2022-08-28T07:42:01.404Z,99.9
2022-08-28T07:43:01.186Z,99.9
2022-08-28T07:44:00.873Z,99.9
2022-08-28T07:45:00.596Z,99.9
2022-08-28T07:46:00.451Z,99.9
2022-08-28T07:47:00.168Z,99.9
2022-08-28T07:48:00.075Z,99.9
2022-08-28T07:49:00.727Z,99.9
2022-08-28T07:50:00.401Z,99.9
2022-08-28T07:51:00.084Z,99.9
2022-08-28T07:51:59.800Z,99.9
2022-08-28T07:53:01.568Z,99.9
2022-08-28T07:54:01.245Z,99.9
2022-08-28T07:55:01.118Z,99.9
2022-08-28T07:56:00.837Z,99.9
2022-08-28T07:57:00.532Z,99.9
2022-08-28T07:58:00.174Z,99.9
2022-08-28T07:58:59.852Z,99.9
2022-08-28T08:00:01.664Z,99.9
2022-08-28T08:01:01.517Z,99.9
2022-08-28T08:02:01.392Z,99.9
2022-08-28T08:03:01.127Z,99.9
2022-08-28T08:04:01.308Z,99.9
2022-08-28T08:05:00.866Z,99.9
2022-08-28T08:06:00.591Z,99.9
2022-08-28T08:07:00.289Z,99.9
2022-08-28T08:07:59.964Z,99.9
2022-08-28T08:08:59.694Z,99.9
2022-08-28T08:10:01.358Z,99.9
2022-08-28T08:11:01.081Z,99.9
2022-08-28T08:12:00.846Z,99.9
2022-08-28T08:13:00.621Z,99.9
2022-08-28T08:14:01.105Z,99.9
2022-08-28T08:15:00.655Z,99.9
2022-08-28T08:16:00.364Z,99.9
2022-08-28T08:17:00.133Z,99.9
2022-08-28T08:17:59.777Z,99.9
2022-08-28T08:19:01.424Z,99.9
2022-08-28T08:20:01.118Z,99.9
2022-08-28T08:21:01.095Z,99.9
2022-08-28T08:22:00.751Z,99.9
2022-08-28T08:23:00.465Z,99.9
2022-08-28T08:24:00.232Z,99.9
2022-08-28T08:24:59.962Z,99.9
2022-08-28T08:25:59.605Z,99.9
2022-08-28T08:27:01.375Z,99.9
2022-08-28T08:28:01.031Z,99.9
2022-08-28T08:29:00.764Z,99.9
2022-08-28T08:30:00.455Z,99.9
2022-08-28T08:31:00.457Z,99.9
2022-08-28T08:32:00.283Z,99.9
2022-08-28T08:32:59.955Z,99.9
2022-08-28T08:33:59.714Z,99.9
2022-08-28T08:35:01.366Z,99.9
2022-08-28T08:36:01.105Z,99.9
2022-08-28T08:37:00.808Z,99.9
2022-08-28T08:38:02.978Z,99.9
2022-08-28T08:39:01.536Z,99.9
2022-08-28T08:40:02.072Z,99.9
2022-08-28T08:41:01.676Z,99.9
2022-08-28T08:42:01.370Z,99.9
2022-08-28T08:43:01.055Z,99.9
2022-08-28T08:44:00.884Z,99.9
2022-08-28T08:45:00.564Z,99.9
2022-08-28T08:46:01.877Z,99.9
2022-08-28T08:47:00.969Z,99.9
2022-08-28T08:48:00.919Z,99.9
2022-08-28T08:49:00.747Z,99.9
2022-08-28T08:50:00.646Z,99.9
2022-08-28T08:51:04.753Z,99.9
2022-08-28T08:52:00.923Z,99.9
2022-08-28T08:53:00.926Z,99.9
2022-08-28T08:54:01.005Z,99.9
2022-08-28T08:55:00.620Z,99.9
2022-08-28T08:56:07.186Z,99.9
2022-08-28T08:57:01.898Z,99.9
2022-08-28T08:58:01.349Z,99.9
2022-08-28T08:59:00.574Z,99.9
2022-08-28T09:00:00.224Z,99.9
2022-08-28T09:01:08.910Z,99.9
2022-08-28T09:02:00.998Z,99.9
2022-08-28T09:03:00.898Z,99.9
2022-08-28T09:04:00.683Z,99.9
2022-08-28T09:05:00.679Z,99.9
2022-08-28T09:06:11.802Z,99.9
2022-08-28T09:07:01.382Z,99.9
2022-08-28T09:08:01.078Z,99.9
2022-08-28T09:09:00.814Z,99.9
2022-08-28T09:10:00.508Z,99.9
2022-08-28T09:11:15.563Z,99.9
2022-08-28T09:12:00.840Z,99.9
2022-08-28T09:13:00.555Z,99.9
2022-08-28T09:14:00.259Z,99.9
2022-08-28T09:14:59.921Z,99.9
2022-08-28T09:15:59.684Z,99.9
2022-08-28T09:17:01.384Z,99.9
2022-08-28T09:18:00.663Z,99.9
2022-08-28T09:19:00.808Z,99.9
2022-08-28T09:20:00.473Z,99.9
2022-08-28T09:21:00.504Z,99.9
2022-08-28T09:22:00.328Z,99.9
2022-08-28T09:23:00.251Z,99.9
2022-08-28T09:24:01.012Z,99.9
2022-08-28T09:25:00.734Z,99.9
2022-08-28T09:26:01.613Z,99.9
2022-08-28T09:27:01.374Z,99.9
2022-08-28T09:28:00.732Z,99.9
2022-08-28T09:29:00.459Z,99.9
2022-08-28T09:30:07.522Z,99.9
2022-08-28T09:31:01.362Z,99.9
2022-08-28T09:32:01.223Z,99.9
2022-08-28T09:33:01.263Z,99.9
2022-08-28T09:34:01.271Z,99.9
2022-08-28T09:35:00.978Z,99.9
2022-08-28T09:36:00.682Z,99.9
2022-08-28T09:37:00.635Z,99.9
2022-08-28T09:38:00.390Z,99.9
2022-08-28T09:39:00.087Z,99.9
2022-08-28T09:40:00.035Z,99.9
2022-08-28T09:41:00.605Z,99.9
2022-08-28T09:42:01.544Z,99.9
2022-08-28T09:43:01.129Z,99.9
2022-08-28T09:44:01.190Z,99.9
2022-08-28T09:45:00.847Z,99.9
2022-08-28T09:46:00.777Z,99.9
2022-08-28T09:47:00.682Z,99.9
2022-08-28T09:48:00.343Z,99.9
2022-08-28T09:49:00.056Z,99.9
2022-08-28T09:49:59.785Z,99.9
2022-08-28T09:51:01.488Z,99.9
2022-08-28T09:52:01.160Z,99.9
2022-08-28T09:53:01.163Z,99.9
2022-08-28T09:54:00.802Z,99.9
2022-08-28T09:55:00.574Z,99.9
2022-08-28T09:56:00.571Z,99.9
2022-08-28T09:57:00.432Z,99.9
2022-08-28T09:58:00.140Z,99.9
2022-08-28T09:58:59.922Z,99.9
2022-08-28T09:59:59.707Z,99.9
2022-08-28T10:01:01.543Z,99.9
2022-08-28T10:02:01.615Z,99.9
2022-08-28T10:03:03.393Z,99.9
2022-08-28T10:04:01.612Z,99.9
2022-08-28T10:05:00.769Z,99.9
2022-08-28T10:06:01.768Z,99.9
2022-08-28T10:07:01.099Z,99.9
2022-08-28T10:08:01.125Z,99.9
2022-08-28T10:09:00.749Z,99.9
2022-08-28T10:10:00.459Z,99.9
2022-08-28T10:11:00.198Z,98.9
2022-08-28T10:12:00.065Z,98.2
2022-08-28T10:12:59.784Z,96.8
2022-08-28T10:14:01.768Z,94.6
2022-08-28T10:15:01.466Z,95
2022-08-28T10:16:01.207Z,94.5
2022-08-28T10:17:00.942Z,94.7
2022-08-28T10:18:00.668Z,94.6
2022-08-28T10:19:00.351Z,96
2022-08-28T10:20:00.016Z,93.7
2022-08-28T10:20:59.769Z,93.6
2022-08-28T10:22:01.497Z,93.7
2022-08-28T10:23:01.503Z,93.6
2022-08-28T10:24:00.791Z,93.4
2022-08-28T10:25:00.502Z,93.6
2022-08-28T10:26:00.328Z,93.6
2022-08-28T10:27:00.352Z,93.7
2022-08-28T10:28:00.369Z,93.2
2022-08-28T10:29:00.163Z,90.5
2022-08-28T10:30:05.958Z,90
2022-08-28T10:31:01.563Z,90.4
2022-08-28T10:32:03.387Z,90.4
2022-08-28T10:33:00.646Z,90.5
2022-08-28T10:34:00.484Z,90.9
2022-08-28T10:35:00.152Z,91
2022-08-28T10:36:00.025Z,91.1
2022-08-28T10:37:05.463Z,89.8
2022-08-28T10:38:00.817Z,89.8
2022-08-28T10:39:00.485Z,90.9
2022-08-28T10:40:00.322Z,86.4
2022-08-28T10:41:00.096Z,81.8
2022-08-28T10:42:08.548Z,80.1
2022-08-28T10:43:01.078Z,79.3
2022-08-28T10:44:00.732Z,79.5
2022-08-28T10:45:01.234Z,79.5
2022-08-28T10:46:01.017Z,77.4
2022-08-28T10:47:12.359Z,77.2
2022-08-28T10:48:01.533Z,75.2
2022-08-28T10:49:01.222Z,79.4
2022-08-28T10:50:00.959Z,76.3
2022-08-28T10:51:00.820Z,75.8
2022-08-28T10:52:11.813Z,74.3
2022-08-28T10:53:01.508Z,67.8
2022-08-28T10:54:00.787Z,64.5
2022-08-28T10:55:00.478Z,58.8
2022-08-28T10:56:00.197Z,58
2022-08-28T10:56:59.967Z,57.7
2022-08-28T10:57:59.685Z,56.7
2022-08-28T10:59:01.325Z,57.1
2022-08-28T11:00:01.124Z,55.7
2022-08-28T11:01:01.452Z,55.5
2022-08-28T11:02:01.117Z,53.1
2022-08-28T11:03:01.165Z,53.7
2022-08-28T11:04:01.245Z,51.9
2022-08-28T11:05:00.960Z,52.6
2022-08-28T11:06:00.651Z,54.4
2022-08-28T11:07:00.417Z,53.8
2022-08-28T11:08:00.060Z,52.8
2022-08-28T11:08:59.730Z,49.7
2022-08-28T11:10:01.603Z,49.8
2022-08-28T11:11:01.278Z,50.7
2022-08-28T11:12:02.409Z,51
2022-08-28T11:13:01.069Z,45.7
2022-08-28T11:14:01.087Z,43.3
2022-08-28T11:15:00.942Z,41.3
2022-08-28T11:16:00.692Z,39.3
2022-08-28T11:17:00.953Z,40.3
2022-08-28T11:18:00.658Z,39.5
2022-08-28T11:19:00.320Z,40.2
2022-08-28T11:20:00.686Z,41.2
2022-08-28T11:21:00.474Z,38.6
2022-08-28T11:22:00.170Z,38.4
2022-08-28T11:23:01.120Z,39.1
2022-08-28T11:24:01.061Z,38.6
2022-08-28T11:25:04.401Z,38.3
2022-08-28T11:26:01.550Z,35.4
2022-08-28T11:27:01.268Z,33
2022-08-28T11:28:01.013Z,33.8
2022-08-28T11:29:00.772Z,30
2022-08-28T11:30:00.580Z,27.9
2022-08-28T11:31:00.772Z,28.9
2022-08-28T11:32:00.581Z,30.1
2022-08-28T11:33:00.687Z,30.4
2022-08-28T11:34:00.668Z,31.6
2022-08-28T11:35:00.437Z,30.9
2022-08-28T11:36:00.102Z,29.5
2022-08-28T11:36:59.881Z,29.1
2022-08-28T11:37:59.536Z,27.4
2022-08-28T11:39:01.651Z,28.5
2022-08-28T11:40:01.348Z,28.4
2022-08-28T11:41:01.197Z,27.2
2022-08-28T11:42:00.916Z,27.7
2022-08-28T11:43:00.630Z,27.1
2022-08-28T11:44:00.269Z,28.5
2022-08-28T11:44:59.993Z,28.9
2022-08-28T11:46:03.447Z,30.5
2022-08-28T11:47:01.441Z,30.9
2022-08-28T11:48:01.200Z,30.7
2022-08-28T11:49:00.771Z,29.1
2022-08-28T11:50:00.397Z,27.9
2022-08-28T11:51:00.063Z,28.5
2022-08-28T11:51:59.850Z,26.6
2022-08-28T11:53:01.595Z,27.1
2022-08-28T11:54:01.074Z,26.5
2022-08-28T11:55:00.775Z,26.6
2022-08-28T11:56:00.794Z,26.6
2022-08-28T11:57:00.381Z,26.7
2022-08-28T11:58:59.924Z,28
2022-08-28T11:59:59.831Z,26.4
2022-08-28T12:01:01.791Z,25.7
2022-08-28T12:02:01.399Z,24.9
2022-08-28T12:03:01.383Z,24.6
2022-08-28T12:04:03.881Z,23.8
2022-08-28T12:05:01.067Z,23.5
2022-08-28T12:06:00.803Z,23.6
2022-08-28T12:07:00.765Z,23.2
2022-08-28T12:08:00.844Z,22.8
2022-08-28T12:09:00.551Z,23.1
2022-08-28T12:10:04.858Z,23
2022-08-28T12:11:01.308Z,22.4
2022-08-28T12:12:00.684Z,22
2022-08-28T12:13:03.110Z,23
2022-08-28T12:14:00.957Z,23.2
2022-08-28T12:15:00.620Z,22.4
2022-08-28T12:16:00.324Z,21.8
2022-08-28T12:17:00.100Z,20.3
2022-08-28T12:18:06.423Z,19.7
2022-08-28T12:19:01.916Z,21.7
2022-08-28T12:20:01.175Z,19.8
2022-08-28T12:21:01.361Z,19.5
2022-08-28T12:22:01.216Z,20.1
2022-08-28T12:23:08.406Z,19.7
2022-08-28T12:24:05.308Z,19.1
2022-08-28T12:25:01.166Z,18.9
2022-08-28T12:26:00.704Z,19.2
2022-08-28T12:27:01.552Z,19.5
2022-08-28T12:28:13.242Z,19.7
2022-08-28T12:29:01.201Z,19.6
2022-08-28T12:30:00.992Z,19.4
2022-08-28T12:31:00.980Z,19.3
2022-08-28T12:32:00.726Z,18.6
2022-08-28T12:33:15.154Z,19.2
2022-08-28T12:34:00.835Z,18.4
2022-08-28T12:35:00.567Z,18.2
2022-08-28T12:36:00.524Z,18.5
2022-08-28T12:37:00.526Z,18.9
2022-08-28T12:38:00.255Z,18.4
2022-08-28T12:38:59.941Z,18.6
2022-08-28T12:39:59.850Z,18.5
2022-08-28T12:41:00.551Z,18.1
2022-08-28T12:42:00.308Z,18.2
2022-08-28T12:42:59.939Z,18.7
2022-08-28T12:43:59.561Z,19.8
2022-08-28T12:45:01.222Z,20
2022-08-28T12:46:01.180Z,18.3
2022-08-28T12:47:00.815Z,17.8
2022-08-28T12:48:00.615Z,18.1
2022-08-28T12:49:00.257Z,16.4
2022-08-28T12:50:00.290Z,17.6
2022-08-28T12:51:00.032Z,17.8
2022-08-28T12:52:00.629Z,16.7
2022-08-28T12:53:00.356Z,17
2022-08-28T12:54:00.055Z,17
2022-08-28T12:54:59.747Z,17.5
2022-08-28T12:56:01.596Z,16.7
2022-08-28T12:57:00.581Z,16.2
2022-08-28T12:58:00.283Z,16.1
2022-08-28T12:59:00.071Z,17.2
2022-08-28T12:59:59.926Z,15.7
2022-08-28T13:00:59.902Z,17.3
2022-08-28T13:01:59.936Z,17
2022-08-28T13:02:59.809Z,16.7
2022-08-28T13:04:01.860Z,15.6
2022-08-28T13:05:01.641Z,15.7
2022-08-28T13:06:00.647Z,15.3
2022-08-28T13:07:00.367Z,15.6
2022-08-28T13:08:00.029Z,15.2
2022-08-28T13:08:59.879Z,15.7
2022-08-28T13:09:59.623Z,15.8
2022-08-28T13:11:00.782Z,16.8
2022-08-28T13:12:00.471Z,16.4
2022-08-28T13:13:05.183Z,15.8
2022-08-28T13:14:00.419Z,15.8
2022-08-28T13:15:00.079Z,15.9
2022-08-28T13:15:59.881Z,15.8
2022-08-28T13:16:59.778Z,15.8
2022-08-28T13:18:01.643Z,17
2022-08-28T13:19:00.822Z,16.7
2022-08-28T13:20:00.624Z,17.6
2022-08-28T13:21:00.633Z,18.3